Aviation Digital Data Service (ADDS)

Output produced by METARs form (0126 UTC 17 July 2019)
found at http://www.aviationweather.gov/metar/data/
 
Forecast for: AGGL (SANTA CRUZ ISLAN, SB)
Text: TAF AGGL 162315Z 1700/1724 11017KT 9999 SCT018
Forecast period: 0000 UTC 17 July 2019 to 0000 UTC 18 July 2019
Forecast type: FROM: standard forecast or significant change
Winds: from the ESE (110 degrees) at 20 MPH (17 knots; 8.7 m/s)
Visibility: 6 or more miles 10+ km)
Ceiling: at least 12,000 feet AGL
Clouds: scattered clouds at 1800 feet AGL
Weather: no significant weather forecast for this period
Text: PROB40 INTER 1700/1706 5000 TSSH BKN016 FEW017CB Q 1011 1009 1008 1010
Forecast period: 0000 to 0600 UTC 17 July 2019
Forecast type: TEMPORARY: The following changes expected for less than half the time period
Visibility: 3 miles (5 km)
Ceiling: 1600 feet AGL
Clouds: broken clouds at 1600 feet AGL
few clouds at 1700 feet AGL
Weather: SH TS  (showers, thunderstorm)